Time;durP1;ratioP1;P1;durP2;ratioP2;P2;SDS_P1;SDS_P2;PMS_P1;PMS_P2;Temp;Humidity;BMP_temperature;BMP_pressure;BME280_temperature;BME280_humidity;BME280_pressure;Samples;Min_cycle;Max_cycle;Signal;HPM_P1;HPM_P2
2022/10/30 00:00:42;;;;;;;8.20;2.00;;;15.30;22.50;;;;;;5112437;28;20448;-72
2022/10/30 00:03:12;;;;;;;3.00;2.30;;;15.30;1.00;;;;;;5111845;28;20455;-71
2022/10/30 00:05:41;;;;;;;3.30;2.27;;;15.30;1.00;;;;;;5112118;28;20458;-72
2022/10/30 00:08:10;;;;;;;4.53;2.70;;;15.30;99.90;;;;;;5111552;28;20459;-72
2022/10/30 00:10:39;;;;;;;5.90;2.10;;;15.40;1.00;;;;;;5111861;28;20457;-73
2022/10/30 00:13:05;;;;;;;5.40;2.40;;;15.40;1.00;;;;;;5111814;28;20444;-72
2022/10/30 00:15:32;;;;;;;2.83;2.00;;;15.40;99.90;;;;;;5111362;28;20502;-72
2022/10/30 00:17:59;;;;;;;4.50;2.27;;;15.40;99.90;;;;;;5112187;28;20450;-72
2022/10/30 00:20:26;;;;;;;4.30;2.03;;;15.40;1.00;;;;;;5111997;28;20444;-72
2022/10/30 00:22:53;;;;;;;3.83;2.27;;;15.40;99.90;;;;;;5111661;28;20962;-72
2022/10/30 00:25:19;;;;;;;4.43;2.60;;;15.30;1.00;;;;;;5111225;28;20451;-71
2022/10/30 00:27:48;;;;;;;5.27;2.77;;;15.40;1.00;;;;;;5111884;28;20444;-72
2022/10/30 00:30:15;;;;;;;4.80;2.33;;;15.40;99.90;;;;;;5111532;28;20450;-72
2022/10/30 00:32:42;;;;;;;5.00;2.17;;;15.40;99.90;;;;;;5111859;28;20452;-72
2022/10/30 00:35:09;;;;;;;4.80;2.07;;;15.40;99.90;;;;;;5111283;28;20483;-72
2022/10/30 00:37:36;;;;;;;7.10;2.07;;;15.40;1.00;;;;;;5097656;28;20448;-72
2022/10/30 00:40:03;;;;;;;5.47;2.13;;;15.40;99.90;;;;;;5111202;28;20446;-72
2022/10/30 00:42:31;;;;;;;2.63;1.90;;;15.50;1.00;;;;;;5111786;28;20451;-72
2022/10/30 00:45:00;;;;;;;2.90;1.57;;;15.50;7.90;;;;;;5112002;28;20478;-72
2022/10/30 00:47:30;;;;;;;4.70;2.70;;;15.50;1.00;;;;;;5111100;28;20451;-72
2022/10/30 00:50:00;;;;;;;2.13;1.47;;;15.40;1.00;;;;;;5112176;28;20828;-72
2022/10/30 00:52:31;;;;;;;2.60;1.63;;;15.40;1.00;;;;;;5114454;28;20439;-72
2022/10/30 00:55:02;;;;;;;4.00;1.93;;;15.40;1.00;;;;;;5115944;28;20822;-72
2022/10/30 00:57:29;;;;;;;6.13;2.90;;;15.40;1.00;;;;;;5115813;28;20443;-72
2022/10/30 00:59:56;;;;;;;2.00;1.40;;;15.50;1.00;;;;;;5116034;28;20447;-72
2022/10/30 01:02:25;;;;;;;4.20;2.17;;;15.40;1.00;;;;;;5115113;28;20452;-72
2022/10/30 01:04:54;;;;;;;3.43;1.73;;;15.30;99.90;;;;;;5115405;28;20961;-72
2022/10/30 01:07:21;;;;;;;3.03;1.90;;;15.40;99.90;;;;;;5114969;28;20474;-72
2022/10/30 01:09:48;;;;;;;6.13;2.30;;;15.40;99.90;;;;;;5115263;28;20803;-71
2022/10/30 01:12:16;;;;;;;3.00;1.93;;;15.40;1.00;;;;;;5106549;28;20459;-72
2022/10/30 01:14:48;;;;;;;4.40;2.70;;;15.40;1.00;;;;;;5115583;28;20475;-72
2022/10/30 01:17:42;;;;;;;12.37;2.17;;;15.40;1.00;;;;;;5115132;28;20455;-72
2022/10/30 01:20:22;;;;;;;4.33;2.33;;;15.50;1.00;;;;;;5103189;28;20937;-72
2022/10/30 01:22:56;;;;;;;5.90;3.13;;;15.40;99.90;;;;;;5115549;28;20432;-75
2022/10/30 01:25:38;;;;;;;10.33;3.07;;;15.40;99.90;;;;;;5114483;28;20443;-72
2022/10/30 01:28:17;;;;;;;7.17;3.70;;;15.40;99.90;;;;;;5114643;28;20440;-72
2022/10/30 01:30:54;;;;;;;8.80;4.90;;;15.40;73.00;;;;;;5115361;28;20447;-72
2022/10/30 01:33:36;;;;;;;5.87;4.73;;;15.40;99.90;;;;;;5114872;28;20466;-73
2022/10/30 01:36:13;;;;;;;6.20;4.40;;;15.30;99.90;;;;;;5114150;28;20471;-72
2022/10/30 01:38:45;;;;;;;11.03;4.93;;;15.30;99.90;;;;;;5115300;28;20787;-72
2022/10/30 01:41:12;;;;;;;7.23;4.57;;;15.30;99.90;;;;;;5114540;28;20451;-71
2022/10/30 01:43:40;;;;;;;6.13;4.17;;;15.30;99.90;;;;;;5115080;28;20451;-72
2022/10/30 01:46:28;;;;;;;9.23;4.40;;;15.30;99.90;;;;;;5114042;28;20918;-72
2022/10/30 01:49:18;;;;;;;7.43;3.60;;;15.30;99.90;;;;;;5114745;28;20436;-72
2022/10/30 01:51:56;;;;;;;10.10;3.10;;;15.20;1.00;;;;;;5115073;28;20462;-72
2022/10/30 01:54:35;;;;;;;4.43;3.43;;;15.10;1.00;;;;;;5114152;28;20454;-72
2022/10/30 01:57:08;;;;;;;4.30;2.20;;;14.80;99.90;;;;;;5113512;28;20436;-72
2022/10/30 01:59:39;;;;;;;4.27;2.07;;;14.70;99.90;;;;;;5114933;28;20470;-72
2022/10/30 02:02:07;;;;;;;4.10;3.40;;;14.80;1.00;;;;;;5114209;28;20778;-71
2022/10/30 02:04:35;;;;;;;2.43;1.30;;;14.80;99.90;;;;;;5114057;28;20455;-72
2022/10/30 02:07:02;;;;;;;4.50;2.00;;;14.60;1.00;;;;;;5113730;28;20451;-72
2022/10/30 02:09:30;;;;;;;2.57;1.60;;;14.40;1.00;;;;;;5114610;28;20450;-72
2022/10/30 02:11:56;;;;;;;5.13;1.90;;;14.40;1.00;;;;;;5114502;28;20455;-74
2022/10/30 02:14:27;;;;;;;5.63;2.90;;;14.30;1.00;;;;;;5113983;28;20448;-73
2022/10/30 02:16:58;;;;;;;10.50;3.00;;;14.30;1.00;;;;;;5114141;28;20970;-72
2022/10/30 02:19:25;;;;;;;3.10;2.03;;;14.20;1.00;;;;;;5114034;28;20452;-72
2022/10/30 02:21:53;;;;;;;2.53;1.80;;;14.20;1.00;;;;;;5114178;28;20444;-72
2022/10/30 02:24:20;;;;;;;3.00;2.17;;;14.40;1.00;;;;;;5113454;28;20865;-72
2022/10/30 02:26:46;;;;;;;7.50;2.30;;;14.50;1.00;;;;;;5113738;28;20471;-73
2022/10/30 02:29:13;;;;;;;5.60;2.10;;;14.60;1.00;;;;;;5113580;28;20457;-72
2022/10/30 02:31:40;;;;;;;4.07;2.40;;;14.60;1.00;;;;;;5113839;28;20448;-71
2022/10/30 02:34:07;;;;;;;4.13;2.07;;;14.40;1.00;;;;;;5113548;28;20459;-72
2022/10/30 02:36:34;;;;;;;3.57;1.90;;;14.40;1.00;;;;;;5113644;28;20483;-72
2022/10/30 02:39:02;;;;;;;3.90;1.90;;;14.50;1.00;;;;;;5113063;28;20459;-69
2022/10/30 02:41:29;;;;;;;8.43;2.20;;;14.50;1.00;;;;;;5113905;28;20455;-71
2022/10/30 02:43:56;;;;;;;4.60;2.30;;;14.30;1.00;;;;;;5113846;28;20934;-72
2022/10/30 02:46:22;;;;;;;2.80;2.07;;;14.20;1.00;;;;;;5113103;28;20469;-72
2022/10/30 02:48:49;;;;;;;7.73;2.63;;;14.20;1.00;;;;;;5113612;28;20454;-72
2022/10/30 02:51:16;;;;;;;6.70;2.37;;;14.10;32.40;;;;;;5113367;28;20444;-72
2022/10/30 02:53:43;;;;;;;2.30;2.10;;;14.10;52.90;;;;;;5113698;28;20457;-72
2022/10/30 02:56:14;;;;;;;6.93;2.43;;;14.10;43.00;;;;;;5112358;28;20482;-71
2022/10/30 02:58:41;;;;;;;3.17;2.53;;;14.20;1.00;;;;;;5113628;28;20444;-71
2022/10/30 03:01:09;;;;;;;6.53;2.03;;;14.00;41.70;;;;;;5112744;28;20926;-72
2022/10/30 03:03:36;;;;;;;2.20;1.43;;;14.00;89.30;;;;;;5113529;28;20454;-72
2022/10/30 03:06:04;;;;;;;4.10;2.20;;;14.00;19.90;;;;;;5112100;28;20463;-71
2022/10/30 03:08:31;;;;;;;3.10;1.67;;;;;;;;;;5112977;28;20451;-73
2022/10/30 03:11:02;;;;;;;3.70;1.73;;;;;;;;;;5113347;28;20444;-72
2022/10/30 03:13:31;;;;;;;6.10;2.27;;;;;;;;;;5113361;28;20450;-72
2022/10/30 03:16:02;;;;;;;4.93;2.17;;;;;;;;;;5111674;28;20498;-71
2022/10/30 03:18:29;;;;;;;6.07;2.03;;;;;;;;;;5113698;28;20455;-72
2022/10/30 03:20:57;;;;;;;5.40;2.17;;;;;;;;;;5113072;28;20448;-71
2022/10/30 03:23:24;;;;;;;8.93;2.87;;;;;;;;;;5112694;28;20448;-72
2022/10/30 03:25:53;;;;;;;5.73;2.40;;;;;;;;;;5112506;28;20459;-72
2022/10/30 03:28:20;;;;;;;6.73;2.20;;;;;;;;;;5112600;28;20478;-72
2022/10/30 03:30:48;;;;;;;4.27;2.43;;;;;;;;;;5112973;28;20440;-72
2022/10/30 03:33:15;;;;;;;3.67;1.53;;;;;;;;;;5112346;28;20455;-72
2022/10/30 03:35:44;;;;;;;5.40;1.97;;;;;;;;;;5112050;28;20836;-72
2022/10/30 03:38:11;;;;;;;4.80;2.50;;;;;;;;;;5112280;28;20451;-72
2022/10/30 03:40:38;;;;;;;4.50;2.27;;;;;;;;;;5112327;28;20440;-70
2022/10/30 03:43:05;;;;;;;4.97;2.30;;;;;;;;;;5111964;28;20455;-72
2022/10/30 03:45:33;;;;;;;5.60;2.67;;;;;;;;;;5112199;28;20809;-72
2022/10/30 03:48:02;;;;;;;3.73;1.93;;;;;;;;;;5112288;28;20448;-69
2022/10/30 03:50:29;;;;;;;5.53;1.97;;;;;;;;;;5112586;28;20475;-72
2022/10/30 03:52:56;;;;;;;4.10;2.10;;;;;;;;;;5112747;28;20788;-71
2022/10/30 03:55:24;;;;;;;4.73;2.40;;;;;;;;;;5111101;28;20503;-72
2022/10/30 03:57:51;;;;;;;2.80;1.77;;;;;;;;;;5112321;28;20452;-71
2022/10/30 04:00:19;;;;;;;7.30;2.27;;;;;;;;;;5111803;28;20454;-71
2022/10/30 04:02:46;;;;;;;3.30;2.40;;;;;;;;;;5112417;28;20462;-72
2022/10/30 04:05:16;;;;;;;7.10;2.47;;;;;;;;;;5110999;28;20937;-72
2022/10/30 04:07:43;;;;;;;3.93;2.10;;;;;;;;;;5112333;28;20454;-72
2022/10/30 04:10:10;;;;;;;3.80;2.20;;;;;;;;;;5111393;28;20459;-72
2022/10/30 04:12:38;;;;;;;4.73;2.17;;;;;;;;;;5112126;28;20454;-72
2022/10/30 04:15:06;;;;;;;4.77;2.53;;;;;;;;;;5111396;28;20446;-71
2022/10/30 04:17:33;;;;;;;4.23;2.70;;;;;;;;;;5112231;28;20486;-71
2022/10/30 04:20:00;;;;;;;3.90;2.50;;;;;;;;;;5111904;28;20456;-72
2022/10/30 04:22:28;;;;;;;5.43;2.13;;;;;;;;;;5112235;28;20444;-71
2022/10/30 04:24:55;;;;;;;7.83;2.97;;;;;;;;;;5098809;28;20459;-71
2022/10/30 04:27:22;;;;;;;5.40;2.33;;;;;;;;;;5110565;28;20456;-71
2022/10/30 04:29:50;;;;;;;6.90;2.20;;;;;;;;;;5112017;28;20443;-72
2022/10/30 04:32:18;;;;;;;3.53;2.70;;;;;;;;;;5111060;28;20455;-72
2022/10/30 04:34:45;;;;;;;3.57;2.53;;;;;;;;;;5112110;28;20455;-72
2022/10/30 04:37:12;;;;;;;7.63;3.17;;;;;;;;;;5110816;28;20491;-71
2022/10/30 04:39:40;;;;;;;6.50;3.03;;;;;;;;;;5112145;28;20448;-71
2022/10/30 04:42:07;;;;;;;3.00;2.13;;;;;;;;;;5110873;28;20452;-72
2022/10/30 04:44:34;;;;;;;4.70;3.10;;;;;;;;;;5111892;28;20471;-71
2022/10/30 04:47:01;;;;;;;6.30;2.97;;;;;;;;;;5110881;28;20474;-70
2022/10/30 04:49:28;;;;;;;3.67;2.13;;;;;;;;;;5111884;28;20468;-72
2022/10/30 04:51:57;;;;;;;3.33;2.17;;;;;;;;;;5112321;28;20535;-72
2022/10/30 04:54:24;;;;;;;4.77;2.87;;;;;;;;;;5111025;28;20448;-71
2022/10/30 04:56:52;;;;;;;4.70;2.10;;;;;;;;;;5110789;28;21023;-72
2022/10/30 04:59:19;;;;;;;5.50;3.00;;;;;;;;;;5111230;28;20451;-72
2022/10/30 05:01:46;;;;;;;7.27;2.47;;;;;;;;;;5111398;28;20440;-71
2022/10/30 05:04:13;;;;;;;3.50;2.27;;;;;;;;;;5110964;28;20939;-72
2022/10/30 05:06:40;;;;;;;5.77;3.10;;;;;;;;;;5111340;28;20450;-71
2022/10/30 05:09:08;;;;;;;5.20;2.87;;;;;;;;;;5111187;28;20447;-72
2022/10/30 05:11:35;;;;;;;4.83;3.17;;;;;;;;;;5111435;28;20448;-71
2022/10/30 05:14:03;;;;;;;5.23;2.40;;;;;;;;;;5110765;28;20457;-71
2022/10/30 05:16:30;;;;;;;5.53;2.90;;;;;;;;;;5110918;28;20487;-71
2022/10/30 05:18:57;;;;;;;4.70;3.30;;;;;;;;;;5111776;28;20450;-72
2022/10/30 05:21:24;;;;;;;7.47;3.37;;;;;;;;;;5110637;28;20448;-73
2022/10/30 05:23:52;;;;;;;4.67;2.57;;;;;;;;;;5111708;28;20521;-72
2022/10/30 05:26:19;;;;;;;5.30;3.40;;;;;;;;;;5110329;28;20448;-72
2022/10/30 05:28:46;;;;;;;5.20;2.57;;;;;;;;;;5111616;28;20802;-71
2022/10/30 05:31:14;;;;;;;5.80;2.80;;;;;;;;;;5110810;28;20483;-71
2022/10/30 05:33:41;;;;;;;4.03;2.53;;;13.90;15.40;;;;;;5111458;28;20805;-71
2022/10/30 05:36:09;;;;;;;6.63;3.17;;;13.10;99.90;;;;;;5110302;28;20498;-71
2022/10/30 05:38:35;;;;;;;8.60;3.23;;;13.00;99.90;;;;;;5112358;28;20455;-71
2022/10/30 05:41:02;;;;;;;7.60;3.60;;;13.00;99.90;;;;;;5114275;28;20460;-71
2022/10/30 05:43:29;;;;;;;10.83;2.83;;;13.00;99.90;;;;;;5115039;28;20931;-72
2022/10/30 05:45:56;;;;;;;5.63;2.43;;;12.90;99.90;;;;;;5114903;28;20462;-71
2022/10/30 05:48:24;;;;;;;4.17;2.67;;;13.00;99.90;;;;;;5114510;28;20462;-71
2022/10/30 05:50:51;;;;;;;7.20;3.40;;;13.10;99.90;;;;;;5114645;28;20701;-71
2022/10/30 05:53:17;;;;;;;5.40;2.63;;;13.10;99.90;;;;;;5114413;28;20457;-71
2022/10/30 05:55:44;;;;;;;4.30;2.60;;;13.10;99.90;;;;;;5114255;28;20451;-71
2022/10/30 05:58:11;;;;;;;12.10;4.00;;;13.00;99.90;;;;;;5114309;28;20783;-71
2022/10/30 06:00:39;;;;;;;5.07;2.50;;;13.00;99.90;;;;;;5115197;28;20443;-72
2022/10/30 06:03:07;;;;;;;5.07;3.30;;;13.00;99.90;;;;;;5114304;28;20440;-72
2022/10/30 06:05:37;;;;;;;8.83;2.37;;;13.10;99.90;;;;;;5114347;28;20444;-71
2022/10/30 06:08:05;;;;;;;5.77;3.40;;;13.00;99.90;;;;;;5114211;28;20809;-71
2022/10/30 06:10:32;;;;;;;6.93;2.43;;;13.00;99.90;;;;;;5114609;28;20448;-71
2022/10/30 06:13:01;;;;;;;3.23;2.57;;;12.90;99.90;;;;;;5114571;28;20440;-72
2022/10/30 06:15:29;;;;;;;4.40;3.10;;;12.90;99.90;;;;;;5114473;27;20463;-72
2022/10/30 06:17:56;;;;;;;3.07;2.23;;;12.90;99.90;;;;;;5114538;28;20982;-72
2022/10/30 06:20:25;;;;;;;3.70;2.83;;;12.90;99.90;;;;;;5114312;28;20807;-71
2022/10/30 06:22:57;;;;;;;6.10;3.00;;;12.90;99.90;;;;;;5114538;28;20448;-72
2022/10/30 06:25:24;;;;;;;5.80;2.73;;;12.90;99.90;;;;;;5113482;28;20527;-72
2022/10/30 06:27:51;;;;;;;6.13;2.83;;;12.90;99.90;;;;;;5114217;28;20539;-73
2022/10/30 06:30:18;;;;;;;3.90;2.97;;;13.00;99.90;;;;;;5114031;28;20448;-72
2022/10/30 06:32:45;;;;;;;3.67;1.97;;;13.00;99.90;;;;;;5114143;28;20455;-72
2022/10/30 06:35:12;;;;;;;9.43;2.87;;;13.00;99.90;;;;;;5112339;28;20448;-71
2022/10/30 06:37:45;;;;;;;8.73;3.07;;;13.10;99.90;;;;;;5113706;28;20823;-72
2022/10/30 06:40:14;;;;;;;3.30;2.73;;;13.10;99.90;;;;;;5113255;28;20449;-71
2022/10/30 06:42:44;;;;;;;3.80;2.43;;;13.00;99.90;;;;;;5112456;28;20483;-71
2022/10/30 06:45:12;;;;;;;6.17;3.37;;;13.00;99.90;;;;;;5105503;28;20830;-72
2022/10/30 06:47:39;;;;;;;4.60;3.43;;;13.00;99.90;;;;;;5113452;28;20942;-72
2022/10/30 06:50:07;;;;;;;9.17;3.07;;;13.00;99.90;;;;;;5113030;28;20472;-71
2022/10/30 06:52:34;;;;;;;4.23;2.80;;;13.10;99.90;;;;;;5112415;28;20443;-71
2022/10/30 06:55:01;;;;;;;7.17;3.00;;;13.10;99.90;;;;;;5112696;28;20636;-70
2022/10/30 06:57:29;;;;;;;4.93;3.33;;;13.20;99.90;;;;;;5111311;28;20475;-72
2022/10/30 06:59:56;;;;;;;3.83;2.33;;;13.30;99.90;;;;;;5113832;28;20451;-72
2022/10/30 07:02:23;;;;;;;5.10;3.47;;;13.20;99.90;;;;;;5110474;28;20447;-72
2022/10/30 07:04:50;;;;;;;6.90;2.97;;;13.20;99.90;;;;;;5113496;28;20783;-71
2022/10/30 07:07:17;;;;;;;7.13;3.40;;;13.30;99.90;;;;;;5113231;28;20452;-71
2022/10/30 07:09:45;;;;;;;3.90;3.07;;;13.40;99.90;;;;;;5113310;28;20455;-71
2022/10/30 07:12:12;;;;;;;5.50;3.43;;;13.30;99.90;;;;;;5112520;28;20539;-71
2022/10/30 07:14:40;;;;;;;3.80;2.77;;;13.40;99.90;;;;;;5111785;28;20448;-71
2022/10/30 07:17:07;;;;;;;9.67;3.20;;;13.50;99.90;;;;;;5112319;28;20483;-72
2022/10/30 07:19:34;;;;;;;9.20;3.20;;;13.50;63.80;;;;;;5112238;28;20451;-72
2022/10/30 07:22:00;;;;;;;2.40;1.93;;;13.50;31.60;;;;;;5111981;28;20466;-70
2022/10/30 07:24:28;;;;;;;4.97;3.60;;;13.60;28.00;;;;;;5112329;28;20439;-72
2022/10/30 07:26:56;;;;;;;3.13;2.33;;;13.60;1.00;;;;;;5112371;28;20444;-71
2022/10/30 07:29:23;;;;;;;6.47;3.30;;;13.60;1.00;;;;;;5112442;28;20466;-70
2022/10/30 07:31:51;;;;;;;6.87;2.80;;;13.60;1.00;;;;;;5113195;28;20444;-71
2022/10/30 07:34:18;;;;;;;3.30;2.47;;;13.60;1.00;;;;;;5101874;28;20470;-71
2022/10/30 07:36:45;;;;;;;7.80;3.87;;;13.70;1.00;;;;;;5112387;28;20472;-73
2022/10/30 07:39:11;;;;;;;7.73;4.00;;;13.80;1.00;;;;;;5111270;28;20998;-73
2022/10/30 07:41:38;;;;;;;5.27;2.50;;;13.80;1.00;;;;;;5112009;28;20455;-73
2022/10/30 07:44:05;;;;;;;8.50;4.00;;;13.90;1.00;;;;;;5110196;28;20919;-72
2022/10/30 07:46:32;;;;;;;3.03;2.23;;;13.90;1.00;;;;;;5112412;28;20457;-70
2022/10/30 07:49:00;;;;;;;7.83;3.60;;;14.10;1.00;;;;;;5111964;28;20449;-69
2022/10/30 07:51:27;;;;;;;4.70;2.87;;;14.10;1.00;;;;;;5112560;28;20440;-70
2022/10/30 07:53:54;;;;;;;4.07;2.57;;;14.20;1.00;;;;;;5112317;28;20945;-69
2022/10/30 07:56:21;;;;;;;5.80;2.43;;;14.30;99.90;;;;;;5111678;28;20440;-70
2022/10/30 07:58:48;;;;;;;3.83;2.13;;;14.40;99.90;;;;;;5111918;28;21018;-70
2022/10/30 08:01:15;;;;;;;2.70;2.20;;;14.40;99.90;;;;;;5111316;28;20436;-71
2022/10/30 08:03:41;;;;;;;5.20;2.77;;;14.50;99.90;;;;;;5109107;28;20444;-74
2022/10/30 08:06:10;;;;;;;6.13;2.40;;;14.60;1.00;;;;;;5111289;28;20957;-75
2022/10/30 08:08:36;;;;;;;5.33;1.83;;;14.70;1.00;;;;;;5094622;28;20480;-72
2022/10/30 08:11:03;;;;;;;4.50;2.73;;;14.90;1.00;;;;;;5108702;28;20481;-73
2022/10/30 08:13:30;;;;;;;3.57;2.40;;;15.00;99.90;;;;;;5096305;28;20448;-72
2022/10/30 08:15:57;;;;;;;9.73;2.50;;;15.00;99.90;;;;;;5109363;28;20462;-72
2022/10/30 08:18:24;;;;;;;4.20;2.50;;;15.10;1.00;;;;;;5109339;28;20480;-72
2022/10/30 08:20:51;;;;;;;5.40;2.27;;;15.20;99.90;;;;;;5109582;28;20456;-73
2022/10/30 08:23:20;;;;;;;6.60;2.17;;;15.20;98.00;;;;;;5108883;28;20448;-72
2022/10/30 08:25:47;;;;;;;5.07;2.20;;;15.30;99.90;;;;;;5109139;28;20843;-72
2022/10/30 08:28:14;;;;;;;6.53;2.67;;;15.50;99.90;;;;;;5108836;28;20448;-73
2022/10/30 08:30:41;;;;;;;3.93;1.70;;;15.60;99.90;;;;;;5110872;28;20462;-72
2022/10/30 08:33:12;;;;;;;6.57;3.10;;;15.60;30.50;;;;;;5109368;28;20457;-72
2022/10/30 08:35:39;;;;;;;2.10;1.70;;;15.60;71.70;;;;;;5109560;28;20432;-72
2022/10/30 08:38:06;;;;;;;3.27;2.10;;;15.70;99.90;;;;;;5103888;28;20472;-72
2022/10/30 08:40:34;;;;;;;10.97;6.90;;;15.70;99.90;;;;;;5109335;28;20501;-72
2022/10/30 08:43:01;;;;;;;4.13;2.83;;;15.70;99.90;;;;;;5106504;28;20684;-70
2022/10/30 08:45:27;;;;;;;5.80;2.63;;;15.80;99.90;;;;;;5109322;28;20440;-73
2022/10/30 08:47:58;;;;;;;5.03;2.27;;;15.90;1.00;;;;;;5109379;28;20444;-72
2022/10/30 08:50:25;;;;;;;2.80;1.97;;;15.90;99.90;;;;;;5109252;28;20472;-70
2022/10/30 08:52:52;;;;;;;6.93;2.20;;;16.00;1.00;;;;;;5109900;28;20448;-72
2022/10/30 08:55:18;;;;;;;4.10;2.53;;;16.00;1.00;;;;;;5109018;28;20450;-72
2022/10/30 08:57:46;;;;;;;4.13;2.20;;;16.10;1.00;;;;;;5110430;28;20495;-72
2022/10/30 09:00:14;;;;;;;3.37;2.43;;;16.10;1.00;;;;;;5106621;28;20444;-73
2022/10/30 09:02:40;;;;;;;4.73;3.33;;;16.20;1.00;;;;;;5111549;28;20785;-73
2022/10/30 09:05:08;;;;;;;6.57;4.50;;;16.20;99.90;;;;;;5111029;28;20440;-73
2022/10/30 09:07:35;;;;;;;5.97;3.10;;;16.30;99.90;;;;;;5113474;28;20465;-73
2022/10/30 09:10:02;;;;;;;6.40;3.03;;;16.40;99.90;;;;;;5111639;28;20446;-73
2022/10/30 09:12:29;;;;;;;6.03;3.20;;;16.50;1.00;;;;;;5110228;28;20997;-73
2022/10/30 09:14:57;;;;;;;5.13;3.57;;;16.60;99.90;;;;;;5114254;28;20448;-73
2022/10/30 09:17:24;;;;;;;4.37;3.07;;;16.70;99.90;;;;;;5115606;28;20479;-72
2022/10/30 09:19:50;;;;;;;5.70;2.87;;;16.80;99.90;;;;;;5112667;28;20455;-74
2022/10/30 09:22:17;;;;;;;5.00;3.37;;;16.90;99.90;;;;;;5113037;28;20451;-76
2022/10/30 09:24:44;;;;;;;4.47;2.93;;;17.00;99.90;;;;;;5115084;28;20456;-72
2022/10/30 09:27:11;;;;;;;5.87;2.80;;;17.10;1.00;;;;;;5116413;28;20442;-73
2022/10/30 09:29:38;;;;;;;3.70;2.00;;;17.20;1.00;;;;;;5118653;28;20482;-73
2022/10/30 09:32:08;;;;;;;5.90;3.23;;;17.40;99.90;;;;;;5118663;28;20451;-71
2022/10/30 09:34:36;;;;;;;4.10;2.60;;;17.60;1.00;;;;;;5118739;28;20459;-72
2022/10/30 09:37:03;;;;;;;3.63;2.47;;;17.70;99.90;;;;;;5118489;28;20444;-71
2022/10/30 09:39:30;;;;;;;9.50;3.90;;;17.80;1.00;;;;;;5106511;28;20440;-74
2022/10/30 09:42:27;;;;;;;5.53;2.70;;;17.90;99.90;;;;;;5121497;28;20442;-73
2022/10/30 09:45:10;;;;;;;5.97;3.20;;;18.00;99.90;;;;;;5091590;28;20452;-71
2022/10/30 09:47:47;;;;;;;5.70;3.50;;;18.00;99.90;;;;;;5123497;28;20435;-71
2022/10/30 09:50:25;;;;;;;4.40;3.20;;;18.10;90.50;;;;;;5123314;28;20481;-72
2022/10/30 09:53:02;;;;;;;5.80;3.40;;;18.20;44.20;;;;;;5123787;28;20443;-71
2022/10/30 09:55:36;;;;;;;7.23;3.20;;;18.40;55.40;;;;;;5119497;28;20447;-72
2022/10/30 09:58:14;;;;;;;4.73;3.20;;;18.50;1.00;;;;;;5105003;28;20468;-72
2022/10/30 10:00:47;;;;;;;3.50;3.00;;;18.50;1.00;;;;;;5099565;28;20435;-73
2022/10/30 10:03:31;;;;;;;5.83;4.20;;;18.60;1.00;;;;;;5112301;28;20539;-73
2022/10/30 10:06:00;;;;;;;7.67;3.53;;;18.70;1.00;;;;;;5112211;28;20522;-73
2022/10/30 10:08:32;;;;;;;3.20;2.83;;;18.70;1.00;;;;;;5111560;28;20454;-73
2022/10/30 10:11:03;;;;;;;4.83;2.87;;;18.70;1.00;;;;;;5112331;28;20439;-73
2022/10/30 10:13:37;;;;;;;5.37;3.27;;;18.80;1.00;;;;;;5103996;28;20432;-74
2022/10/30 10:16:11;;;;;;;4.67;3.33;;;18.90;1.00;;;;;;5110961;28;20467;-73
2022/10/30 10:18:45;;;;;;;7.00;3.00;;;18.90;1.00;;;;;;5111065;28;21015;-73
2022/10/30 10:21:21;;;;;;;9.93;3.17;;;19.10;1.00;;;;;;5111235;28;20444;-73
2022/10/30 10:23:49;;;;;;;7.03;3.33;;;19.10;1.00;;;;;;5111464;28;20435;-73
2022/10/30 10:26:44;;;;;;;4.97;2.70;;;19.20;1.00;;;;;;5110106;28;20447;-73
2022/10/30 10:29:32;;;;;;;6.30;3.20;;;19.30;1.00;;;;;;5110838;28;20553;-72
2022/10/30 10:32:13;;;;;;;4.07;3.10;;;19.40;1.00;;;;;;5111786;28;20440;-74
2022/10/30 10:34:56;;;;;;;5.30;3.40;;;19.40;1.00;;;;;;5099938;28;20436;-73
2022/10/30 10:37:38;;;;;;;7.13;3.67;;;19.50;1.00;;;;;;5110903;28;20447;-73
2022/10/30 10:40:27;;;;;;;5.40;3.07;;;19.60;1.00;;;;;;5101867;28;20442;-73
2022/10/30 10:43:09;;;;;;;5.40;2.80;;;19.70;1.00;;;;;;5098046;28;20448;-72
2022/10/30 10:45:44;;;;;;;4.83;2.83;;;19.80;1.00;;;;;;5110936;28;20455;-75
2022/10/30 10:48:46;;;;;;;4.27;3.20;;;19.90;1.00;;;;;;5110734;28;20489;-73
2022/10/30 10:51:19;;;;;;;6.37;3.67;;;20.10;1.00;;;;;;5101921;28;20436;-74
2022/10/30 10:53:53;;;;;;;4.50;3.07;;;20.20;99.90;;;;;;5111155;28;20440;-74
2022/10/30 10:56:25;;;;;;;6.33;3.60;;;20.30;99.90;;;;;;5110354;28;20996;-75
2022/10/30 10:58:56;;;;;;;3.73;2.30;;;20.40;99.90;;;;;;5110783;28;20460;-75
2022/10/30 11:01:37;;;;;;;5.97;3.60;;;20.50;99.90;;;;;;5110449;28;20445;-74
2022/10/30 11:04:10;;;;;;;8.23;3.20;;;20.60;99.90;;;;;;5110450;28;20440;-74
2022/10/30 11:06:41;;;;;;;6.63;3.10;;;20.70;99.90;;;;;;5110804;28;21204;-74
2022/10/30 11:09:15;;;;;;;8.97;3.47;;;20.70;99.90;;;;;;5110064;28;20447;-74
2022/10/30 11:11:43;;;;;;;4.93;3.47;;;20.80;99.90;;;;;;5104296;28;20436;-74
2022/10/30 11:14:15;;;;;;;5.40;2.93;;;20.90;99.90;;;;;;5110302;28;20493;-73
2022/10/30 11:16:59;;;;;;;4.43;2.90;;;21.10;99.90;;;;;;5110560;28;20463;-74
2022/10/30 11:19:28;;;;;;;3.40;2.57;;;21.20;99.90;;;;;;5109774;28;20478;-71
2022/10/30 11:21:57;;;;;;;5.87;2.70;;;21.40;99.90;;;;;;5103320;28;20456;-71
2022/10/30 11:24:30;;;;;;;4.97;3.50;;;21.50;99.90;;;;;;5096730;28;20528;-73
2022/10/30 11:26:58;;;;;;;3.90;2.53;;;21.50;99.90;;;;;;5109344;28;20934;-75
2022/10/30 11:29:27;;;;;;;4.67;2.90;;;21.60;99.90;;;;;;5109429;28;20451;-74
2022/10/30 11:32:01;;;;;;;3.83;3.30;;;21.60;99.90;;;;;;5110208;28;20815;-74
2022/10/30 11:34:33;;;;;;;4.17;3.13;;;21.70;99.90;;;;;;5109088;28;20479;-74
2022/10/30 11:37:02;;;;;;;6.73;3.40;;;21.70;99.90;;;;;;5108842;28;20447;-72
2022/10/30 11:39:31;;;;;;;4.80;3.30;;;21.80;99.90;;;;;;5109185;28;20479;-74
2022/10/30 11:42:05;;;;;;;5.43;3.40;;;21.90;99.90;;;;;;5109978;28;20444;-74
2022/10/30 11:44:35;;;;;;;6.60;3.50;;;22.10;99.90;;;;;;5107477;28;20447;-73
2022/10/30 11:47:03;;;;;;;4.80;2.97;;;22.20;99.90;;;;;;5109261;28;20892;-72
2022/10/30 11:49:41;;;;;;;4.80;3.13;;;22.30;99.90;;;;;;5109784;28;20483;-74
2022/10/30 11:52:10;;;;;;;5.13;3.57;;;22.30;99.90;;;;;;5108969;28;20501;-74
2022/10/30 11:54:43;;;;;;;5.20;3.00;;;22.30;99.90;;;;;;5109638;27;20458;-74
2022/10/30 11:57:23;;;;;;;5.47;3.40;;;22.30;99.90;;;;;;5109029;28;20452;-74
2022/10/30 11:59:53;;;;;;;5.67;3.90;;;22.30;99.90;;;;;;5108009;28;20513;-71
2022/10/30 12:02:25;;;;;;;5.00;3.37;;;22.30;99.90;;;;;;5108063;28;20927;-71
2022/10/30 12:04:52;;;;;;;4.03;3.10;;;22.20;99.90;;;;;;5108930;28;20463;-72
2022/10/30 12:07:26;;;;;;;4.53;3.50;;;22.10;99.90;;;;;;5108855;28;20523;-71
2022/10/30 12:09:54;;;;;;;5.07;2.80;;;22.10;99.90;;;;;;5109565;28;20444;-71
2022/10/30 12:12:24;;;;;;;6.37;3.63;;;22.10;99.90;;;;;;5109066;28;20746;-71
2022/10/30 12:14:52;;;;;;;5.73;3.23;;;22.10;99.90;;;;;;5109234;28;20449;-72
2022/10/30 12:17:20;;;;;;;8.83;3.67;;;22.20;99.90;;;;;;5108749;28;20456;-71
2022/10/30 12:19:49;;;;;;;4.87;3.10;;;22.20;99.90;;;;;;5109602;28;20486;-71
2022/10/30 12:22:30;;;;;;;7.53;4.53;;;22.40;99.90;;;;;;5108669;28;20452;-71
2022/10/30 12:24:58;;;;;;;6.10;4.30;;;22.40;99.90;;;;;;5096339;28;20452;-71
2022/10/30 12:27:25;;;;;;;4.43;3.60;;;22.50;99.90;;;;;;5108556;28;20489;-71
2022/10/30 12:30:02;;;;;;;3.57;3.27;;;22.50;99.90;;;;;;5108996;28;20527;-72
2022/10/30 12:32:39;;;;;;;4.37;3.30;;;22.60;99.90;;;;;;5108661;28;20779;-72
2022/10/30 12:35:16;;;;;;;5.60;3.10;;;22.70;99.90;;;;;;5108499;28;20444;-72
2022/10/30 12:37:44;;;;;;;5.50;3.10;;;22.90;99.90;;;;;;5109282;28;20504;-72
2022/10/30 12:40:16;;;;;;;7.40;4.20;;;22.90;99.90;;;;;;5108513;28;20502;-72
2022/10/30 12:42:51;;;;;;;7.10;3.80;;;22.90;99.90;;;;;;5107239;28;20454;-70
2022/10/30 12:45:22;;;;;;;3.87;3.40;;;22.90;99.90;;;;;;5107627;28;20447;-72
2022/10/30 12:47:54;;;;;;;2.73;2.53;;;22.90;99.90;;;;;;5108953;28;20470;-72
2022/10/30 12:50:25;;;;;;;5.50;3.60;;;22.90;99.90;;;;;;5108314;28;20730;-72
2022/10/30 12:52:59;;;;;;;5.77;3.77;;;23.00;99.90;;;;;;5108609;28;20444;-72
2022/10/30 12:55:31;;;;;;;5.40;3.97;;;22.90;99.90;;;;;;5108795;28;20444;-72
2022/10/30 12:58:05;;;;;;;4.63;3.27;;;22.90;99.90;;;;;;5108870;28;20470;-72
2022/10/30 13:00:38;;;;;;;4.47;3.50;;;22.90;99.90;;;;;;5108827;28;20450;-72
2022/10/30 13:03:21;;;;;;;4.47;3.33;;;23.00;99.90;;;;;;5107048;28;20846;-72
2022/10/30 13:05:51;;;;;;;4.60;4.13;;;23.10;99.90;;;;;;5108354;28;20450;-72
2022/10/30 13:08:26;;;;;;;4.40;3.20;;;23.20;99.90;;;;;;5107865;28;20475;-72
2022/10/30 13:10:56;;;;;;;6.10;3.63;;;23.30;99.90;;;;;;5108903;28;20451;-72
2022/10/30 13:13:27;;;;;;;5.03;3.47;;;23.30;99.90;;;;;;5107600;28;20713;-72
2022/10/30 13:15:56;;;;;;;4.83;3.90;;;23.40;99.90;;;;;;5108641;28;20455;-72
2022/10/30 13:18:25;;;;;;;7.67;3.73;;;23.40;99.90;;;;;;5102742;28;20456;-72
2022/10/30 13:21:16;;;;;;;6.30;3.47;;;23.50;99.90;;;;;;5108960;28;20819;-72